createdAt,value
2018-07-19T00:01:38.401Z,26.10
2018-07-19T00:03:40.985Z,26.00
2018-07-19T00:05:44.453Z,26.00
2018-07-19T00:07:47.071Z,26.00
2018-07-19T00:09:49.670Z,26.00
2018-07-19T00:11:52.321Z,26.00
2018-07-19T00:13:54.923Z,26.00
2018-07-19T00:15:58.415Z,25.90
2018-07-19T00:18:01.774Z,25.90
2018-07-19T00:20:04.481Z,25.90
2018-07-19T00:22:07.976Z,25.90
2018-07-19T00:24:11.346Z,25.90
2018-07-19T00:26:13.961Z,25.90
2018-07-19T00:28:16.574Z,25.90
2018-07-19T00:30:19.161Z,25.80
2018-07-19T00:32:21.794Z,25.80
2018-07-19T00:34:24.398Z,25.80
2018-07-19T00:36:27.037Z,25.80
2018-07-19T00:38:29.639Z,25.80
2018-07-19T00:40:32.366Z,25.70
2018-07-19T00:42:35.758Z,25.70
2018-07-19T00:44:39.127Z,25.70
2018-07-19T00:46:41.762Z,25.70
2018-07-19T00:48:44.356Z,25.70
2018-07-19T00:50:47.076Z,25.70
2018-07-19T00:52:49.670Z,25.60
2018-07-19T00:54:53.144Z,25.50
2018-07-19T00:56:56.742Z,25.50
2018-07-19T00:59:00.106Z,25.50
2018-07-19T01:01:02.741Z,25.50
2018-07-19T01:03:05.349Z,25.50
2018-07-19T01:05:07.932Z,25.40
2018-07-19T01:07:10.530Z,25.40
2018-07-19T01:09:13.064Z,25.30
2018-07-19T01:11:15.635Z,25.30
2018-07-19T01:13:18.206Z,25.30
2018-07-19T01:15:20.749Z,25.30
2018-07-19T01:17:23.360Z,25.30
2018-07-19T01:19:25.908Z,25.20
2018-07-19T01:21:28.479Z,25.20
2018-07-19T01:23:31.017Z,25.10
2018-07-19T01:25:34.509Z,25.10
2018-07-19T01:27:37.182Z,25.00
2018-07-19T01:29:39.748Z,25.00
2018-07-19T01:31:42.308Z,25.00
2018-07-19T01:33:44.901Z,24.90
2018-07-19T01:35:47.442Z,24.90
2018-07-19T01:37:50.123Z,24.80
2018-07-19T01:39:52.668Z,24.80
2018-07-19T01:41:55.225Z,24.80
2018-07-19T01:43:57.872Z,24.80
2018-07-19T01:46:00.517Z,24.70
2018-07-19T01:48:03.180Z,24.70
2018-07-19T01:50:05.735Z,24.60
2018-07-19T01:52:08.329Z,24.60
2018-07-19T01:54:10.857Z,24.60
2018-07-19T01:56:14.185Z,24.50
2018-07-19T01:58:16.765Z,24.40
2018-07-19T02:00:19.343Z,24.40
2018-07-19T02:02:21.912Z,24.40
2018-07-19T02:04:24.493Z,24.40
2018-07-19T02:06:27.056Z,24.30
2018-07-19T02:08:29.601Z,24.30
2018-07-19T02:10:32.221Z,24.30
2018-07-19T02:12:34.881Z,24.30
2018-07-19T02:14:37.425Z,24.20
2018-07-19T02:16:40.024Z,24.20
2018-07-19T02:18:42.572Z,24.10
2018-07-19T02:20:45.218Z,24.10
2018-07-19T02:22:47.870Z,24.10
2018-07-19T02:24:50.417Z,24.00
2018-07-19T02:26:53.041Z,24.00
2018-07-19T02:28:55.576Z,23.90
2018-07-19T02:30:58.121Z,23.90
2018-07-19T02:33:00.680Z,23.90
2018-07-19T02:35:03.305Z,23.80
2018-07-19T02:37:05.868Z,23.80
2018-07-19T02:39:08.460Z,23.80
2018-07-19T02:41:11.026Z,23.80
2018-07-19T02:43:13.596Z,23.80
2018-07-19T02:45:16.141Z,23.80
2018-07-19T02:47:18.722Z,23.70
2018-07-19T02:49:21.304Z,23.70
2018-07-19T02:51:23.848Z,23.70
2018-07-19T02:53:26.414Z,23.70
2018-07-19T02:55:29.069Z,23.70
2018-07-19T02:57:31.617Z,23.70
2018-07-19T02:59:34.165Z,23.60
2018-07-19T03:01:36.783Z,23.60
2018-07-19T03:03:39.424Z,23.60
2018-07-19T03:05:42.040Z,23.60
2018-07-19T03:07:44.780Z,23.60
2018-07-19T03:09:47.222Z,23.60
2018-07-19T03:11:49.781Z,23.60
2018-07-19T03:13:53.102Z,23.50
2018-07-19T03:15:55.725Z,23.50
2018-07-19T03:17:58.356Z,23.50
2018-07-19T03:20:01.038Z,23.50
2018-07-19T03:22:03.616Z,23.50
2018-07-19T03:24:06.230Z,23.40
2018-07-19T03:26:10.314Z,23.40
2018-07-19T03:28:12.968Z,23.40
2018-07-19T03:30:15.585Z,23.40
2018-07-19T03:32:18.141Z,23.40
2018-07-19T03:34:20.698Z,23.40
2018-07-19T03:36:23.230Z,23.40
2018-07-19T03:38:25.821Z,23.40
2018-07-19T03:40:28.417Z,23.40
2018-07-19T03:42:30.994Z,23.40
2018-07-19T03:44:33.554Z,23.30
2018-07-19T03:46:36.130Z,23.30
2018-07-19T03:48:38.700Z,23.30
2018-07-19T03:50:41.323Z,23.30
2018-07-19T03:52:43.872Z,23.20
2018-07-19T03:54:46.417Z,23.20
2018-07-19T03:56:48.964Z,23.20
2018-07-19T03:58:51.573Z,23.20
2018-07-19T04:00:54.121Z,23.10
2018-07-19T04:02:56.735Z,23.10
2018-07-19T04:04:59.289Z,23.10
2018-07-19T04:07:01.850Z,23.10
2018-07-19T04:09:04.438Z,23.10
2018-07-19T04:11:07.031Z,23.10
2018-07-19T04:13:09.624Z,23.10
2018-07-19T04:15:13.660Z,23.10
2018-07-19T04:17:16.275Z,23.10
2018-07-19T04:19:18.838Z,23.10
2018-07-19T04:21:21.421Z,23.10
2018-07-19T04:23:23.993Z,23.10
2018-07-19T04:25:26.570Z,23.10
2018-07-19T04:27:29.260Z,23.10
2018-07-19T04:29:32.018Z,23.10
2018-07-19T04:31:34.561Z,23.10
2018-07-19T04:33:37.973Z,23.10
2018-07-19T04:35:40.519Z,23.10
2018-07-19T04:37:43.132Z,23.10
2018-07-19T04:39:45.693Z,23.10
2018-07-19T04:41:48.313Z,23.10
2018-07-19T04:43:50.865Z,23.10
2018-07-19T04:45:53.431Z,23.10
2018-07-19T04:47:55.992Z,23.10
2018-07-19T04:49:58.577Z,23.20
2018-07-19T04:52:01.157Z,23.20
2018-07-19T04:54:03.856Z,23.20
2018-07-19T04:56:06.534Z,23.20
2018-07-19T04:58:09.084Z,23.20
2018-07-19T05:00:11.636Z,23.20
2018-07-19T05:02:14.178Z,23.20
2018-07-19T05:04:16.740Z,23.20
2018-07-19T05:06:29.993Z,23.30
2018-07-19T05:37:18.387Z,23.00
2018-07-19T05:47:25.931Z,23.20
2018-07-19T05:57:32.696Z,23.40
2018-07-19T06:17:17.724Z,22.90
2018-07-19T06:27:25.011Z,23.40
2018-07-19T06:37:28.920Z,23.60
2018-07-19T06:47:33.480Z,23.70
2018-07-19T06:57:41.360Z,23.90
2018-07-19T08:07:18.834Z,24.80
2018-07-19T08:27:24.255Z,24.50
2018-07-19T08:47:25.902Z,24.70
2018-07-19T09:07:23.180Z,25.00
2018-07-19T10:27:19.713Z,26.70
2018-07-19T10:37:29.737Z,26.80
2018-07-19T10:47:34.489Z,26.90
2018-07-19T10:57:40.864Z,27.00
2018-07-19T11:17:17.886Z,26.70
2018-07-19T11:37:19.335Z,26.80
2018-07-19T11:57:19.890Z,27.10
2018-07-19T12:17:20.932Z,27.40
2018-07-19T12:37:18.821Z,27.60
2018-07-19T12:57:14.379Z,27.80
2018-07-19T13:17:25.810Z,28.40
2018-07-19T13:37:19.520Z,28.60
2018-07-19T13:57:19.246Z,28.90
2018-07-19T14:17:18.990Z,29.20
2018-07-19T14:39:53.991Z,29.50
2018-07-19T14:49:32.215Z,29.50
2018-07-19T14:59:33.722Z,29.40
2018-07-19T15:09:26.926Z,29.40
2018-07-19T15:19:26.750Z,29.30
2018-07-19T15:29:25.732Z,29.20
2018-07-19T15:39:28.574Z,29.10
2018-07-19T15:49:26.835Z,29.00
2018-07-19T15:59:26.238Z,29.00
2018-07-19T16:09:25.422Z,29.00
2018-07-19T16:19:30.060Z,29.10
2018-07-19T16:29:26.953Z,29.10
2018-07-19T16:39:26.728Z,29.20
2018-07-19T16:49:26.892Z,29.30
2018-07-19T16:59:26.231Z,29.40
2018-07-19T17:09:27.016Z,29.40
2018-07-19T17:19:31.856Z,29.60
2018-07-19T17:21:34.439Z,29.90
2018-07-19T17:23:36.989Z,30.00
2018-07-19T17:25:39.542Z,30.20
2018-07-19T17:27:42.877Z,30.60
2018-07-19T17:29:45.439Z,30.50
2018-07-19T17:31:48.032Z,30.80
2018-07-19T17:33:50.577Z,30.90
2018-07-19T17:35:53.145Z,31.10
2018-07-19T17:37:55.709Z,31.20
2018-07-19T17:39:58.308Z,31.30
2018-07-19T17:42:00.889Z,31.40
2018-07-19T17:44:03.436Z,31.50
2018-07-19T17:46:06.049Z,31.50
2018-07-19T17:48:08.583Z,31.60
2018-07-19T17:50:11.180Z,31.70
2018-07-19T17:52:13.786Z,31.70
2018-07-19T17:54:16.320Z,31.80
2018-07-19T17:56:18.996Z,31.80
2018-07-19T17:58:21.556Z,31.90
2018-07-19T18:00:24.113Z,31.90
2018-07-19T18:02:26.730Z,31.90
2018-07-19T18:04:29.300Z,31.90
2018-07-19T18:06:31.873Z,31.90
2018-07-19T18:08:34.416Z,31.90
2018-07-19T18:10:36.960Z,31.90
2018-07-19T18:12:39.565Z,31.90
2018-07-19T18:14:42.157Z,31.90
2018-07-19T18:16:44.762Z,31.90
2018-07-19T18:18:47.292Z,31.90
2018-07-19T18:20:49.880Z,31.80
2018-07-19T18:22:52.441Z,31.80
2018-07-19T18:24:55.126Z,31.70
2018-07-19T18:26:57.738Z,31.70
2018-07-19T18:29:01.045Z,31.50
2018-07-19T18:31:04.369Z,31.50
2018-07-19T18:33:06.958Z,31.50
2018-07-19T18:35:09.671Z,31.50
2018-07-19T18:37:12.212Z,31.40
2018-07-19T18:39:14.757Z,31.40
2018-07-19T18:41:17.325Z,31.30
2018-07-19T18:43:19.880Z,31.30
2018-07-19T18:45:23.256Z,31.20
2018-07-19T18:47:25.809Z,31.20
2018-07-19T18:49:28.377Z,31.20
2018-07-19T18:51:31.056Z,31.10
2018-07-19T18:53:33.609Z,31.00
2018-07-19T18:55:36.167Z,30.90
2018-07-19T18:57:38.729Z,30.90
2018-07-19T18:59:41.313Z,30.90
2018-07-19T19:01:43.882Z,30.80
2018-07-19T19:03:46.484Z,30.80
2018-07-19T19:05:49.302Z,30.70
2018-07-19T19:07:51.932Z,30.70
2018-07-19T19:09:54.476Z,30.60
2018-07-19T19:11:58.009Z,30.50
2018-07-19T19:14:01.372Z,30.50
2018-07-19T19:16:03.923Z,30.50
2018-07-19T19:18:07.260Z,30.40
2018-07-19T19:20:09.801Z,30.30
2018-07-19T19:22:12.370Z,30.30
2018-07-19T19:24:15.677Z,30.20
2018-07-19T19:26:18.289Z,30.20
2018-07-19T19:28:20.887Z,30.10
2018-07-19T19:30:23.397Z,30.00
2018-07-19T19:32:25.992Z,30.00
2018-07-19T19:34:28.516Z,30.00
2018-07-19T19:36:31.857Z,29.90
2018-07-19T19:38:34.421Z,29.90
2018-07-19T19:40:36.965Z,29.80
2018-07-19T19:42:39.538Z,29.80
2018-07-19T19:44:42.140Z,29.70
2018-07-19T19:46:44.685Z,29.70
2018-07-19T19:48:47.292Z,29.70
2018-07-19T19:50:49.973Z,29.60
2018-07-19T19:52:52.593Z,29.50
2018-07-19T19:54:55.913Z,29.40
2018-07-19T19:56:58.526Z,29.50
2018-07-19T19:59:01.099Z,29.40
2018-07-19T20:01:03.730Z,29.30
2018-07-19T20:03:06.281Z,29.30
2018-07-19T20:05:09.600Z,29.20
2018-07-19T20:07:12.200Z,29.20
2018-07-19T20:09:14.735Z,29.20
2018-07-19T20:11:17.340Z,29.10
2018-07-19T20:13:19.906Z,29.10
2018-07-19T20:15:22.493Z,29.00
2018-07-19T20:17:25.092Z,29.00
2018-07-19T20:19:27.741Z,29.00
2018-07-19T20:21:30.302Z,28.90
2018-07-19T20:23:32.894Z,28.90
2018-07-19T20:25:35.459Z,28.80
2018-07-19T20:27:38.005Z,28.80
2018-07-19T20:29:40.604Z,28.90
2018-07-19T20:31:43.144Z,28.80
2018-07-19T20:33:45.748Z,28.80
2018-07-19T20:35:48.466Z,28.70
2018-07-19T20:37:51.013Z,28.60
2018-07-19T20:39:54.385Z,28.50
2018-07-19T20:41:56.960Z,28.50
2018-07-19T20:43:59.526Z,28.40
2018-07-19T20:46:02.073Z,28.30
2018-07-19T20:48:05.397Z,28.20
2018-07-19T20:50:07.997Z,28.20
2018-07-19T20:52:10.544Z,28.10
2018-07-19T20:54:16.343Z,28.10
2018-07-19T20:56:19.908Z,27.90
2018-07-19T20:58:22.476Z,27.90
2018-07-19T21:00:25.051Z,27.90
2018-07-19T21:02:28.152Z,27.80
2018-07-19T21:04:31.621Z,27.80
2018-07-19T21:06:34.163Z,27.70
2018-07-19T21:08:36.759Z,27.70
2018-07-19T21:10:40.141Z,27.60
2018-07-19T21:12:42.685Z,27.60
2018-07-19T21:14:46.032Z,27.50
2018-07-19T21:16:48.610Z,27.60
2018-07-19T21:18:51.178Z,27.50
2018-07-19T21:20:53.725Z,27.50
2018-07-19T21:22:57.212Z,27.40
2018-07-19T21:24:59.790Z,27.40
2018-07-19T21:27:02.346Z,27.40
2018-07-19T21:29:05.682Z,27.30
2018-07-19T21:31:08.243Z,27.30
2018-07-19T21:33:10.856Z,27.30
2018-07-19T21:35:13.394Z,27.20
2018-07-19T21:37:15.929Z,27.20
2018-07-19T21:39:18.510Z,27.10
2018-07-19T21:41:21.066Z,27.10
2018-07-19T21:43:24.406Z,27.10
2018-07-19T21:45:26.950Z,27.00
2018-07-19T21:47:29.556Z,27.00
2018-07-19T21:49:32.141Z,27.00
2018-07-19T21:51:34.685Z,27.00
2018-07-19T21:53:37.266Z,26.90
2018-07-19T21:55:39.808Z,26.90
2018-07-19T21:57:43.123Z,26.80
2018-07-19T21:59:45.682Z,26.80
2018-07-19T22:01:48.239Z,26.80
2018-07-19T22:03:51.585Z,26.70
2018-07-19T22:05:54.193Z,26.70
2018-07-19T22:07:56.719Z,26.70
2018-07-19T22:09:59.310Z,26.70
2018-07-19T22:12:01.861Z,26.60
2018-07-19T22:14:05.241Z,26.60
2018-07-19T22:16:07.790Z,26.60
2018-07-19T22:18:11.113Z,26.50
2018-07-19T22:20:13.693Z,26.50
2018-07-19T22:22:16.239Z,26.50
2018-07-19T22:24:18.849Z,26.40
2018-07-19T22:26:21.478Z,26.40
2018-07-19T22:28:23.973Z,26.40
2018-07-19T22:30:26.539Z,26.30
2018-07-19T22:32:29.184Z,26.40
2018-07-19T22:34:31.816Z,26.30
2018-07-19T22:36:34.405Z,26.30
2018-07-19T22:38:36.946Z,26.30
2018-07-19T22:40:39.501Z,26.30
2018-07-19T22:42:42.053Z,26.30
2018-07-19T22:44:45.544Z,26.20
2018-07-19T22:46:48.061Z,26.20
2018-07-19T22:48:50.606Z,26.20
2018-07-19T22:50:53.942Z,26.20
2018-07-19T22:52:56.503Z,26.20
2018-07-19T22:54:59.086Z,26.20
2018-07-19T22:57:01.669Z,26.10
2018-07-19T22:59:04.221Z,26.10
2018-07-19T23:01:06.767Z,26.00
2018-07-19T23:03:09.388Z,26.00
2018-07-19T23:05:11.953Z,26.00
2018-07-19T23:07:14.517Z,26.00
2018-07-19T23:09:17.099Z,26.00
2018-07-19T23:11:19.672Z,25.90
2018-07-19T23:13:22.216Z,25.90
2018-07-19T23:15:24.820Z,25.90
2018-07-19T23:17:27.396Z,25.90
2018-07-19T23:19:29.961Z,25.90
2018-07-19T23:21:32.556Z,25.90
2018-07-19T23:23:35.098Z,25.90
2018-07-19T23:25:37.665Z,25.90
2018-07-19T23:27:40.216Z,25.90
2018-07-19T23:29:43.542Z,25.90
2018-07-19T23:31:46.085Z,25.90
2018-07-19T23:33:48.740Z,25.90
2018-07-19T23:35:51.285Z,25.80
2018-07-19T23:37:53.852Z,25.80
2018-07-19T23:39:56.463Z,25.80
2018-07-19T23:41:59.008Z,25.80
2018-07-19T23:44:01.569Z,25.80
2018-07-19T23:46:04.136Z,25.70
2018-07-19T23:48:06.678Z,25.70
2018-07-19T23:50:09.327Z,25.70
2018-07-19T23:52:12.785Z,25.60
2018-07-19T23:54:15.469Z,25.60
2018-07-19T23:56:18.049Z,25.60
2018-07-19T23:58:20.599Z,25.60
